Spokane, WA (99207)

1:51 AM PST on November 28, 2014 (GMT -0800)
Corbin Park | Change Station
CLOSE
Current Station
Personal Weather Station
Location: Spokane, WA
Elevation: 1906 ft
Nearby Weather Stations
Active Advisory: Wind Advisory Active Notice: Record Report

Elev 1906 ft 47.68 °N, 117.42 °W | Updated 1 minute ago

Clear
Clear
50.3 °F
Feels Like 50.3 °F
N
3.1
Wind Variable Wind from South
Gusts 10.7 mph

Today
High -- | Low -- °F
--% Chance of Precip.
Yesterday
High -- | Low -- °F
Precip. -- in
7:13 AM 4:01 PM
Waxing Crescent, 38% visible
Pressure 29.67 in
Visibility 10.0 miles
Clouds Clear
Dew Point 40 °F
Humidity 69%
Rainfall 0.00 in
Snow Depth Not available.
UV 0 out of 12
Pollen .40 out of 12
Air Quality Not available.
Flu Activity Not available.
METAR KSFF 280853Z AUTO 23019G31KT 10SM CLR 11/05 A2968 RMK AO2 PK WND 23031/0848 SLP047 T01110050 58016

More Conditions Fewer Conditions

Pressure 29.67 in
Visibility 10.0 miles
Clouds Clear
Dew Point 40 °F
Humidity 69%
Rainfall 0.00 in
Snow Depth Not available.
UV 0 out of 12
Pollen .40 out of 12
Air Quality Not available.
Flu Activity Not available.
METAR KSFF 280853Z AUTO 23019G31KT 10SM CLR 11/05 A2968 RMK AO2 PK WND 23031/0848 SLP047 T01110050 58016

More Conditions Fewer Conditions

10-Day Weather Forecast

Almanac

Astronomy

Nov. 28, 2014 Rise Set
Actual Time
Civil Twilight
Nautical Twilight
Astronomical Twilight
Moon
Length of Visible Light
Length of Day
Tomorrow will be .
, % of the Moon is Illuminated

Today's Extremes

State Highs State Lows

Community

WunderPhotos

Upload Photos

1,774,190 photos uploaded!

WunderBlogs® & News

Nearby

Air Quality

  Air Quality AQ Index Pollutant
Not available.

Snow Depth

Station Depth Elevation

Earthquake Activity

City Distance Mag. Time & Date
Minimum magnitude displayed is 2.5.

Coastal Water Temperatures

Place Temperature

Nearby Weather Stations